CheckWX is a tool to help pilots better visualize weather data.  It is not intended as a substitute for an official pre-flight weather briefing.

03:59:16 UTC

KDMW METAR
Carroll County Regional / Jack B Poage Field Airport
Westminster, Maryland, USA
Current

19 mins ago

KDMW 260340Z AUTO 00000KT 10SM -VCTSRA SCT012 SCT032 BKN060 20/19 A3005 RMK AO2 LTG DSNT E THRU SW P0006
Observed
May-26 @ 03:40 UTC
Visibility
10 SM
Flight Rules
VFR
Conditions
Area Thunderstorm, Light Rain
Cloud Levels
  • Scattered at 1,200' AGL
  • Scattered at 3,200' AGL
  • Broken at 6,000' AGL
Temperature
20°C / 68°F
Dewpoint
19°C / 66°F
Humidity
94%
Altimeter
30.05" Hg
Pressure
1017.62 hPa
Current Rain
0.06"
Previous

39 mins ago

KDMW 260320Z AUTO 20007KT 7SM TSRA SCT011 BKN038 OVC110 20/19 A3006 RMK AO2 LTG DSNT SE THRU SW P0005
Observed
May-26 @ 03:20 UTC
Wind
  • 200° at 7 KTS
Visibility
7 SM
Flight Rules
VFR
Conditions
Thunderstorm, Rain
Cloud Levels
  • Scattered at 1,100' AGL
  • Broken at 3,800' AGL
  • Overcast at 11,000' AGL
Temperature
20°C / 68°F
Dewpoint
19°C / 66°F
Humidity
94%
Altimeter
30.06" Hg
Pressure
1017.92 hPa
Current Rain
0.05"
Previous

59 mins ago

KDMW 260300Z AUTO 18007KT 7SM RA SCT019 SCT070 BKN110 21/19 A3006 RMK AO2 LTG DSNT S THRU NW P0001
Observed
May-26 @ 03:00 UTC
Wind
  • 180° at 7 KTS
Visibility
7 SM
Flight Rules
VFR
Conditions
Rain
Cloud Levels
  • Scattered at 1,900' AGL
  • Scattered at 7,000' AGL
  • Broken at 11,000' AGL
Temperature
21°C / 70°F
Dewpoint
19°C / 66°F
Humidity
88%
Altimeter
30.06" Hg
Pressure
1017.92 hPa
Current Rain
0.01"